sensor_id;sensor_type;location;lat;lon;timestamp;temperature;humidity
14359;DHT22;7263;49.418;11.064;2022-08-11T00:00:32;17.50;92.20
14359;DHT22;7263;49.418;11.064;2022-08-11T00:03:05;17.50;92.10
14359;DHT22;7263;49.418;11.064;2022-08-11T00:05:42;17.50;92.20
14359;DHT22;7263;49.418;11.064;2022-08-11T00:08:10;17.50;92.20
14359;DHT22;7263;49.418;11.064;2022-08-11T00:10:51;17.50;92.00
14359;DHT22;7263;49.418;11.064;2022-08-11T00:13:21;17.50;92.00
14359;DHT22;7263;49.418;11.064;2022-08-11T00:15:49;17.50;92.10
14359;DHT22;7263;49.418;11.064;2022-08-11T00:18:17;17.50;92.10
14359;DHT22;7263;49.418;11.064;2022-08-11T00:20:44;17.50;92.40
14359;DHT22;7263;49.418;11.064;2022-08-11T00:23:13;17.60;92.10
14359;DHT22;7263;49.418;11.064;2022-08-11T00:25:44;17.60;92.20
14359;DHT22;7263;49.418;11.064;2022-08-11T00:28:28;17.70;92.30
14359;DHT22;7263;49.418;11.064;2022-08-11T00:30:58;17.70;92.00
14359;DHT22;7263;49.418;11.064;2022-08-11T00:33:36;17.70;92.20
14359;DHT22;7263;49.418;11.064;2022-08-11T00:36:05;17.70;92.20
14359;DHT22;7263;49.418;11.064;2022-08-11T00:38:40;17.70;92.10
14359;DHT22;7263;49.418;11.064;2022-08-11T00:41:19;17.70;92.20
14359;DHT22;7263;49.418;11.064;2022-08-11T00:44:26;17.70;92.30
14359;DHT22;7263;49.418;11.064;2022-08-11T00:47:02;17.60;92.30
14359;DHT22;7263;49.418;11.064;2022-08-11T00:49:54;17.50;92.60
14359;DHT22;7263;49.418;11.064;2022-08-11T00:52:43;17.50;92.60
14359;DHT22;7263;49.418;11.064;2022-08-11T00:59:23;17.40;92.90
14359;DHT22;7263;49.418;11.064;2022-08-11T01:01:57;17.30;93.00
14359;DHT22;7263;49.418;11.064;2022-08-11T01:10:58;17.20;93.50
14359;DHT22;7263;49.418;11.064;2022-08-11T01:13:53;17.10;93.40
14359;DHT22;7263;49.418;11.064;2022-08-11T01:16:52;17.00;93.40
14359;DHT22;7263;49.418;11.064;2022-08-11T01:19:54;16.90;93.60
14359;DHT22;7263;49.418;11.064;2022-08-11T01:25:58;16.70;93.90
14359;DHT22;7263;49.418;11.064;2022-08-11T01:29:04;16.60;94.10
14359;DHT22;7263;49.418;11.064;2022-08-11T01:32:06;16.50;94.40
14359;DHT22;7263;49.418;11.064;2022-08-11T01:38:38;16.30;95.20
14359;DHT22;7263;49.418;11.064;2022-08-11T01:41:30;16.30;95.50
14359;DHT22;7263;49.418;11.064;2022-08-11T01:44:20;16.30;95.80
14359;DHT22;7263;49.418;11.064;2022-08-11T01:47:16;16.30;96.20
14359;DHT22;7263;49.418;11.064;2022-08-11T01:50:09;16.20;96.40
14359;DHT22;7263;49.418;11.064;2022-08-11T01:53:00;16.10;96.70
14359;DHT22;7263;49.418;11.064;2022-08-11T01:55:36;16.10;97.10
14359;DHT22;7263;49.418;11.064;2022-08-11T01:58:12;16.00;97.40
14359;DHT22;7263;49.418;11.064;2022-08-11T02:00:50;16.00;97.80
14359;DHT22;7263;49.418;11.064;2022-08-11T02:03:25;15.80;98.00
14359;DHT22;7263;49.418;11.064;2022-08-11T02:05:59;15.80;98.40
14359;DHT22;7263;49.418;11.064;2022-08-11T02:08:40;15.70;98.60
14359;DHT22;7263;49.418;11.064;2022-08-11T02:11:22;15.60;98.70
14359;DHT22;7263;49.418;11.064;2022-08-11T02:14:02;15.60;99.30
14359;DHT22;7263;49.418;11.064;2022-08-11T02:16:46;15.60;99.80
14359;DHT22;7263;49.418;11.064;2022-08-11T02:19:21;15.60;99.90
14359;DHT22;7263;49.418;11.064;2022-08-11T02:22:16;15.60;99.90
14359;DHT22;7263;49.418;11.064;2022-08-11T02:25:10;15.50;99.90
14359;DHT22;7263;49.418;11.064;2022-08-11T02:27:44;15.50;99.90
14359;DHT22;7263;49.418;11.064;2022-08-11T02:30:16;15.40;99.90
14359;DHT22;7263;49.418;11.064;2022-08-11T02:32:49;15.30;99.90
14359;DHT22;7263;49.418;11.064;2022-08-11T02:35:41;16.30;99.90
14359;DHT22;7263;49.418;11.064;2022-08-11T02:38:17;15.20;99.90
14359;DHT22;7263;49.418;11.064;2022-08-11T02:40:49;15.20;99.90
14359;DHT22;7263;49.418;11.064;2022-08-11T02:43:28;15.10;99.90
14359;DHT22;7263;49.418;11.064;2022-08-11T02:46:15;15.10;99.90
14359;DHT22;7263;49.418;11.064;2022-08-11T02:48:52;15.10;99.90
14359;DHT22;7263;49.418;11.064;2022-08-11T02:51:47;15.00;99.90
14359;DHT22;7263;49.418;11.064;2022-08-11T02:54:22;14.90;99.90
14359;DHT22;7263;49.418;11.064;2022-08-11T02:56:56;14.90;99.90
14359;DHT22;7263;49.418;11.064;2022-08-11T02:59:32;14.80;99.90
14359;DHT22;7263;49.418;11.064;2022-08-11T03:02:42;14.80;99.90
14359;DHT22;7263;49.418;11.064;2022-08-11T03:05:21;14.80;99.90
14359;DHT22;7263;49.418;11.064;2022-08-11T03:08:05;14.70;99.90
14359;DHT22;7263;49.418;11.064;2022-08-11T03:10:40;14.70;99.90
14359;DHT22;7263;49.418;11.064;2022-08-11T03:13:14;14.60;99.90
14359;DHT22;7263;49.418;11.064;2022-08-11T03:16:12;14.60;99.90
14359;DHT22;7263;49.418;11.064;2022-08-11T03:19:07;14.50;99.90
14359;DHT22;7263;49.418;11.064;2022-08-11T03:21:44;14.50;99.90
14359;DHT22;7263;49.418;11.064;2022-08-11T03:24:21;14.50;99.90
14359;DHT22;7263;49.418;11.064;2022-08-11T03:27:02;14.40;99.90
14359;DHT22;7263;49.418;11.064;2022-08-11T03:29:35;14.30;99.90
14359;DHT22;7263;49.418;11.064;2022-08-11T03:32:09;14.30;99.90
14359;DHT22;7263;49.418;11.064;2022-08-11T03:34:38;14.30;99.90
14359;DHT22;7263;49.418;11.064;2022-08-11T03:37:45;14.20;99.90
14359;DHT22;7263;49.418;11.064;2022-08-11T03:40:32;14.20;99.90
14359;DHT22;7263;49.418;11.064;2022-08-11T03:43:27;14.20;99.90
14359;DHT22;7263;49.418;11.064;2022-08-11T03:46:07;14.20;99.90
14359;DHT22;7263;49.418;11.064;2022-08-11T03:48:48;14.20;99.90
14359;DHT22;7263;49.418;11.064;2022-08-11T03:51:24;14.20;99.90
14359;DHT22;7263;49.418;11.064;2022-08-11T03:54:15;14.10;99.90
14359;DHT22;7263;49.418;11.064;2022-08-11T03:57:20;14.10;99.90
14359;DHT22;7263;49.418;11.064;2022-08-11T04:00:27;14.10;99.90
14359;DHT22;7263;49.418;11.064;2022-08-11T04:03:43;14.10;99.90
14359;DHT22;7263;49.418;11.064;2022-08-11T04:09:59;14.20;99.90
14359;DHT22;7263;49.418;11.064;2022-08-11T04:16:00;14.20;99.90
14359;DHT22;7263;49.418;11.064;2022-08-11T04:19:05;14.20;99.90
14359;DHT22;7263;49.418;11.064;2022-08-11T04:22:07;14.20;99.90
14359;DHT22;7263;49.418;11.064;2022-08-11T04:27:52;14.30;99.90
14359;DHT22;7263;49.418;11.064;2022-08-11T04:30:29;14.40;99.90
14359;DHT22;7263;49.418;11.064;2022-08-11T04:33:32;14.50;99.90
14359;DHT22;7263;49.418;11.064;2022-08-11T04:39:20;15.00;99.90
14359;DHT22;7263;49.418;11.064;2022-08-11T04:42:12;15.30;99.90
14359;DHT22;7263;49.418;11.064;2022-08-11T04:45:25;15.70;99.90
14359;DHT22;7263;49.418;11.064;2022-08-11T04:51:42;16.50;99.90
14359;DHT22;7263;49.418;11.064;2022-08-11T04:54:44;17.00;99.90
14359;DHT22;7263;49.418;11.064;2022-08-11T04:57:52;17.40;99.90
14359;DHT22;7263;49.418;11.064;2022-08-11T05:00:54;17.90;99.90
14359;DHT22;7263;49.418;11.064;2022-08-11T05:04:02;18.30;99.90
14359;DHT22;7263;49.418;11.064;2022-08-11T05:07:17;18.70;99.90
14359;DHT22;7263;49.418;11.064;2022-08-11T05:10:05;19.10;99.90
14359;DHT22;7263;49.418;11.064;2022-08-11T05:12:41;19.30;99.90
14359;DHT22;7263;49.418;11.064;2022-08-11T05:15:12;19.50;99.20
14359;DHT22;7263;49.418;11.064;2022-08-11T05:18:01;19.60;98.20
14359;DHT22;7263;49.418;11.064;2022-08-11T05:20:52;19.60;97.80
14359;DHT22;7263;49.418;11.064;2022-08-11T05:23:42;19.60;97.20
14359;DHT22;7263;49.418;11.064;2022-08-11T05:26:46;19.70;97.40
14359;DHT22;7263;49.418;11.064;2022-08-11T05:29:40;19.90;96.90
14359;DHT22;7263;49.418;11.064;2022-08-11T05:32:29;20.00;96.30
14359;DHT22;7263;49.418;11.064;2022-08-11T05:35:16;20.20;96.40
14359;DHT22;7263;49.418;11.064;2022-08-11T05:37:50;20.40;96.30
14359;DHT22;7263;49.418;11.064;2022-08-11T05:40:36;20.40;96.50
14359;DHT22;7263;49.418;11.064;2022-08-11T05:43:21;20.60;95.70
14359;DHT22;7263;49.418;11.064;2022-08-11T05:46:06;20.80;95.50
14359;DHT22;7263;49.418;11.064;2022-08-11T05:48:51;21.00;95.00
14359;DHT22;7263;49.418;11.064;2022-08-11T05:51:38;21.10;94.70
14359;DHT22;7263;49.418;11.064;2022-08-11T05:54:25;21.20;94.50
14359;DHT22;7263;49.418;11.064;2022-08-11T05:57:17;21.40;94.50
14359;DHT22;7263;49.418;11.064;2022-08-11T05:59:46;21.50;94.10
14359;DHT22;7263;49.418;11.064;2022-08-11T06:02:14;21.60;94.00
14359;DHT22;7263;49.418;11.064;2022-08-11T06:04:42;21.80;93.70
14359;DHT22;7263;49.418;11.064;2022-08-11T06:07:11;22.00;93.30
14359;DHT22;7263;49.418;11.064;2022-08-11T06:09:47;22.10;93.00
14359;DHT22;7263;49.418;11.064;2022-08-11T06:12:20;22.10;92.80
14359;DHT22;7263;49.418;11.064;2022-08-11T06:14:52;22.00;92.60
14359;DHT22;7263;49.418;11.064;2022-08-11T06:17:22;22.00;92.50
14359;DHT22;7263;49.418;11.064;2022-08-11T06:19:50;22.10;92.80
14359;DHT22;7263;49.418;11.064;2022-08-11T06:22:21;22.20;92.50
14359;DHT22;7263;49.418;11.064;2022-08-11T06:24:56;22.40;92.30
14359;DHT22;7263;49.418;11.064;2022-08-11T06:27:25;22.50;92.60
14359;DHT22;7263;49.418;11.064;2022-08-11T06:29:53;22.70;92.20
14359;DHT22;7263;49.418;11.064;2022-08-11T06:32:23;22.80;92.00
14359;DHT22;7263;49.418;11.064;2022-08-11T06:35:18;23.00;91.80
14359;DHT22;7263;49.418;11.064;2022-08-11T06:38:07;23.30;91.30
14359;DHT22;7263;49.418;11.064;2022-08-11T06:40:45;23.30;91.60
14359;DHT22;7263;49.418;11.064;2022-08-11T06:43:45;23.40;91.40
14359;DHT22;7263;49.418;11.064;2022-08-11T06:46:16;23.70;91.30
14359;DHT22;7263;49.418;11.064;2022-08-11T06:48:44;23.80;90.60
14359;DHT22;7263;49.418;11.064;2022-08-11T06:51:11;24.00;90.70
14359;DHT22;7263;49.418;11.064;2022-08-11T06:53:41;24.20;90.90
14359;DHT22;7263;49.418;11.064;2022-08-11T06:56:09;24.50;90.50
14359;DHT22;7263;49.418;11.064;2022-08-11T06:58:56;24.80;90.40
14359;DHT22;7263;49.418;11.064;2022-08-11T07:01:59;24.90;89.70
14359;DHT22;7263;49.418;11.064;2022-08-11T07:04:30;25.00;89.80
14359;DHT22;7263;49.418;11.064;2022-08-11T07:07:27;25.00;89.80
14359;DHT22;7263;49.418;11.064;2022-08-11T07:10:42;25.30;89.70
14359;DHT22;7263;49.418;11.064;2022-08-11T07:13:32;25.90;88.50
14359;DHT22;7263;49.418;11.064;2022-08-11T07:16:26;26.10;87.60
14359;DHT22;7263;49.418;11.064;2022-08-11T07:18:56;26.30;87.70
14359;DHT22;7263;49.418;11.064;2022-08-11T07:21:45;26.30;86.70
14359;DHT22;7263;49.418;11.064;2022-08-11T07:24:34;26.30;86.50
14359;DHT22;7263;49.418;11.064;2022-08-11T07:27:20;26.20;86.30
14359;DHT22;7263;49.418;11.064;2022-08-11T07:30:08;26.40;86.20
14359;DHT22;7263;49.418;11.064;2022-08-11T07:32:43;26.80;86.10
14359;DHT22;7263;49.418;11.064;2022-08-11T07:35:14;27.20;85.30
14359;DHT22;7263;49.418;11.064;2022-08-11T07:37:49;27.50;84.40
14359;DHT22;7263;49.418;11.064;2022-08-11T07:40:21;27.60;83.10
14359;DHT22;7263;49.418;11.064;2022-08-11T07:42:49;27.50;82.90
14359;DHT22;7263;49.418;11.064;2022-08-11T07:45:16;27.30;83.20
14359;DHT22;7263;49.418;11.064;2022-08-11T07:48:03;27.30;82.40
14359;DHT22;7263;49.418;11.064;2022-08-11T07:50:48;27.30;82.80
14359;DHT22;7263;49.418;11.064;2022-08-11T07:53:33;27.40;82.10
14359;DHT22;7263;49.418;11.064;2022-08-11T07:56:03;27.30;81.60
14359;DHT22;7263;49.418;11.064;2022-08-11T07:58:34;27.20;82.40
14359;DHT22;7263;49.418;11.064;2022-08-11T08:01:20;27.30;82.10
14359;DHT22;7263;49.418;11.064;2022-08-11T08:04:08;27.60;80.40
14359;DHT22;7263;49.418;11.064;2022-08-11T08:06:54;27.60;81.10
14359;DHT22;7263;49.418;11.064;2022-08-11T08:09:39;27.50;80.40
14359;DHT22;7263;49.418;11.064;2022-08-11T08:12:25;27.40;79.80
14359;DHT22;7263;49.418;11.064;2022-08-11T08:15:11;27.40;80.40
14359;DHT22;7263;49.418;11.064;2022-08-11T08:17:57;27.30;78.80
14359;DHT22;7263;49.418;11.064;2022-08-11T08:20:29;27.30;79.70
14359;DHT22;7263;49.418;11.064;2022-08-11T08:22:58;27.40;79.10
14359;DHT22;7263;49.418;11.064;2022-08-11T08:25:26;27.30;79.10
14359;DHT22;7263;49.418;11.064;2022-08-11T08:27:55;27.20;79.70
14359;DHT22;7263;49.418;11.064;2022-08-11T08:30:23;27.10;77.90
14359;DHT22;7263;49.418;11.064;2022-08-11T08:33:11;27.10;78.00
14359;DHT22;7263;49.418;11.064;2022-08-11T08:35:40;27.20;78.40
14359;DHT22;7263;49.418;11.064;2022-08-11T08:38:09;27.40;78.30
14359;DHT22;7263;49.418;11.064;2022-08-11T08:40:39;27.20;78.30
14359;DHT22;7263;49.418;11.064;2022-08-11T08:43:09;27.30;78.00
14359;DHT22;7263;49.418;11.064;2022-08-11T08:45:41;27.50;77.10
14359;DHT22;7263;49.418;11.064;2022-08-11T08:48:12;27.50;76.90
14359;DHT22;7263;49.418;11.064;2022-08-11T08:50:44;27.50;78.00
14359;DHT22;7263;49.418;11.064;2022-08-11T08:53:34;27.60;77.20
14359;DHT22;7263;49.418;11.064;2022-08-11T08:56:02;27.70;76.20
14359;DHT22;7263;49.418;11.064;2022-08-11T08:58:30;27.70;76.40
14359;DHT22;7263;49.418;11.064;2022-08-11T09:01:00;28.00;76.80
14359;DHT22;7263;49.418;11.064;2022-08-11T09:03:27;28.30;77.30
14359;DHT22;7263;49.418;11.064;2022-08-11T09:05:56;28.30;76.40
14359;DHT22;7263;49.418;11.064;2022-08-11T09:08:23;28.40;75.30
14359;DHT22;7263;49.418;11.064;2022-08-11T09:10:56;28.30;75.70
14359;DHT22;7263;49.418;11.064;2022-08-11T09:13:41;28.10;75.30
14359;DHT22;7263;49.418;11.064;2022-08-11T09:16:10;28.00;75.40
14359;DHT22;7263;49.418;11.064;2022-08-11T09:18:39;27.70;75.40
14359;DHT22;7263;49.418;11.064;2022-08-11T09:21:11;27.80;76.00
14359;DHT22;7263;49.418;11.064;2022-08-11T09:23:39;27.90;75.60
14359;DHT22;7263;49.418;11.064;2022-08-11T09:26:24;28.10;75.10
14359;DHT22;7263;49.418;11.064;2022-08-11T09:29:09;28.40;73.90
14359;DHT22;7263;49.418;11.064;2022-08-11T09:31:37;28.50;73.40
14359;DHT22;7263;49.418;11.064;2022-08-11T09:34:04;28.50;74.10
14359;DHT22;7263;49.418;11.064;2022-08-11T09:36:33;26.20;71.30
14359;DHT22;7263;49.418;11.064;2022-08-11T09:39:18;28.50;72.50
14359;DHT22;7263;49.418;11.064;2022-08-11T09:42:03;28.20;72.50
14359;DHT22;7263;49.418;11.064;2022-08-11T09:44:33;28.50;73.10
14359;DHT22;7263;49.418;11.064;2022-08-11T09:47:21;28.50;72.90
14359;DHT22;7263;49.418;11.064;2022-08-11T09:49:51;28.70;72.70
14359;DHT22;7263;49.418;11.064;2022-08-11T09:52:21;28.70;73.10
14359;DHT22;7263;49.418;11.064;2022-08-11T09:54:49;28.80;73.00
14359;DHT22;7263;49.418;11.064;2022-08-11T09:57:18;28.80;72.40
14359;DHT22;7263;49.418;11.064;2022-08-11T10:00:06;28.80;72.50
14359;DHT22;7263;49.418;11.064;2022-08-11T10:02:33;28.90;72.10
14359;DHT22;7263;49.418;11.064;2022-08-11T10:05:02;28.90;72.50
14359;DHT22;7263;49.418;11.064;2022-08-11T10:07:46;28.90;72.20
14359;DHT22;7263;49.418;11.064;2022-08-11T10:10:17;29.10;71.10
14359;DHT22;7263;49.418;11.064;2022-08-11T10:12:50;29.30;70.10
14359;DHT22;7263;49.418;11.064;2022-08-11T10:15:18;29.50;71.00
14359;DHT22;7263;49.418;11.064;2022-08-11T10:18:05;29.70;69.50
14359;DHT22;7263;49.418;11.064;2022-08-11T10:20:52;29.70;70.20
14359;DHT22;7263;49.418;11.064;2022-08-11T10:23:23;29.60;70.30
14359;DHT22;7263;49.418;11.064;2022-08-11T10:26:08;29.70;69.40
14359;DHT22;7263;49.418;11.064;2022-08-11T10:28:53;29.60;69.10
14359;DHT22;7263;49.418;11.064;2022-08-11T10:31:20;29.70;67.20
14359;DHT22;7263;49.418;11.064;2022-08-11T10:34:06;29.80;66.40
14359;DHT22;7263;49.418;11.064;2022-08-11T10:36:36;29.70;67.40
14359;DHT22;7263;49.418;11.064;2022-08-11T10:39:11;29.70;67.60
14359;DHT22;7263;49.418;11.064;2022-08-11T10:41:40;29.80;67.60
14359;DHT22;7263;49.418;11.064;2022-08-11T10:44:25;29.70;66.20
14359;DHT22;7263;49.418;11.064;2022-08-11T10:46:52;29.40;67.40
14359;DHT22;7263;49.418;11.064;2022-08-11T10:49:37;29.30;67.30
14359;DHT22;7263;49.418;11.064;2022-08-11T10:52:04;29.40;68.30
14359;DHT22;7263;49.418;11.064;2022-08-11T10:54:50;29.30;67.00
14359;DHT22;7263;49.418;11.064;2022-08-11T10:57:36;29.30;65.80
14359;DHT22;7263;49.418;11.064;2022-08-11T11:00:20;29.50;66.70
14359;DHT22;7263;49.418;11.064;2022-08-11T11:02:49;29.60;64.50
14359;DHT22;7263;49.418;11.064;2022-08-11T11:05:23;29.60;65.70
14359;DHT22;7263;49.418;11.064;2022-08-11T11:07:57;29.50;65.10
14359;DHT22;7263;49.418;11.064;2022-08-11T11:10:30;29.50;66.60
14359;DHT22;7263;49.418;11.064;2022-08-11T11:12:57;29.70;65.80
14359;DHT22;7263;49.418;11.064;2022-08-11T11:15:45;29.80;64.80
14359;DHT22;7263;49.418;11.064;2022-08-11T11:18:32;30.30;65.80
14359;DHT22;7263;49.418;11.064;2022-08-11T11:21:05;30.40;65.10
14359;DHT22;7263;49.418;11.064;2022-08-11T11:23:37;30.20;64.80
14359;DHT22;7263;49.418;11.064;2022-08-11T11:26:29;30.10;65.10
14359;DHT22;7263;49.418;11.064;2022-08-11T11:29:38;30.00;65.30
14359;DHT22;7263;49.418;11.064;2022-08-11T11:32:17;29.90;65.40
14359;DHT22;7263;49.418;11.064;2022-08-11T11:35:10;29.60;64.60
14359;DHT22;7263;49.418;11.064;2022-08-11T11:37:40;29.60;65.90
14359;DHT22;7263;49.418;11.064;2022-08-11T11:40:09;29.50;67.20
14359;DHT22;7263;49.418;11.064;2022-08-11T11:42:39;29.60;67.00
14359;DHT22;7263;49.418;11.064;2022-08-11T11:45:08;29.80;66.80
14359;DHT22;7263;49.418;11.064;2022-08-11T11:47:36;30.40;67.30
14359;DHT22;7263;49.418;11.064;2022-08-11T11:50:05;30.70;65.30
14359;DHT22;7263;49.418;11.064;2022-08-11T11:52:33;30.70;65.30
14359;DHT22;7263;49.418;11.064;2022-08-11T11:55:02;30.60;65.30
14359;DHT22;7263;49.418;11.064;2022-08-11T11:57:30;30.60;64.80
14359;DHT22;7263;49.418;11.064;2022-08-11T12:00:18;30.50;64.80
14359;DHT22;7263;49.418;11.064;2022-08-11T12:03:06;30.30;64.70
14359;DHT22;7263;49.418;11.064;2022-08-11T12:05:36;30.20;64.40
14359;DHT22;7263;49.418;11.064;2022-08-11T12:08:04;29.90;62.80
14359;DHT22;7263;49.418;11.064;2022-08-11T12:10:43;29.90;63.30
14359;DHT22;7263;49.418;11.064;2022-08-11T12:13:12;29.60;64.40
14359;DHT22;7263;49.418;11.064;2022-08-11T12:16:00;29.50;63.90
14359;DHT22;7263;49.418;11.064;2022-08-11T12:18:30;29.30;64.10
14359;DHT22;7263;49.418;11.064;2022-08-11T12:20:59;29.40;63.80
14359;DHT22;7263;49.418;11.064;2022-08-11T12:23:27;29.50;63.10
14359;DHT22;7263;49.418;11.064;2022-08-11T12:26:13;29.50;63.40
14359;DHT22;7263;49.418;11.064;2022-08-11T12:28:58;29.30;62.10
14359;DHT22;7263;49.418;11.064;2022-08-11T12:31:27;29.20;62.70
14359;DHT22;7263;49.418;11.064;2022-08-11T12:33:59;29.00;63.90
14359;DHT22;7263;49.418;11.064;2022-08-11T12:36:27;28.80;62.00
14359;DHT22;7263;49.418;11.064;2022-08-11T12:38:54;28.60;62.50
14359;DHT22;7263;49.418;11.064;2022-08-11T12:41:22;28.40;61.90
14359;DHT22;7263;49.418;11.064;2022-08-11T12:44:08;28.10;64.10
14359;DHT22;7263;49.418;11.064;2022-08-11T12:46:58;28.00;63.80
14359;DHT22;7263;49.418;11.064;2022-08-11T12:49:27;28.00;65.10
14359;DHT22;7263;49.418;11.064;2022-08-11T12:52:19;27.90;63.20
14359;DHT22;7263;49.418;11.064;2022-08-11T12:54:56;27.80;62.60
14359;DHT22;7263;49.418;11.064;2022-08-11T12:57:32;27.60;64.20
14359;DHT22;7263;49.418;11.064;2022-08-11T13:00:18;27.60;65.50
14359;DHT22;7263;49.418;11.064;2022-08-11T13:03:06;27.50;64.80
14359;DHT22;7263;49.418;11.064;2022-08-11T13:05:54;27.40;65.00
14359;DHT22;7263;49.418;11.064;2022-08-11T13:08:22;27.30;63.50
14359;DHT22;7263;49.418;11.064;2022-08-11T13:10:52;27.20;64.20
14359;DHT22;7263;49.418;11.064;2022-08-11T13:13:38;27.20;63.80
14359;DHT22;7263;49.418;11.064;2022-08-11T13:16:07;27.30;64.40
14359;DHT22;7263;49.418;11.064;2022-08-11T13:18:37;27.30;64.10
14359;DHT22;7263;49.418;11.064;2022-08-11T13:21:08;27.20;64.10
14359;DHT22;7263;49.418;11.064;2022-08-11T13:23:37;27.20;64.30
14359;DHT22;7263;49.418;11.064;2022-08-11T13:26:06;27.10;63.90
14359;DHT22;7263;49.418;11.064;2022-08-11T13:28:33;27.10;64.20
14359;DHT22;7263;49.418;11.064;2022-08-11T13:31:01;27.10;60.50
14359;DHT22;7263;49.418;11.064;2022-08-11T13:33:43;27.30;61.90
14359;DHT22;7263;49.418;11.064;2022-08-11T13:36:12;27.30;62.70
14359;DHT22;7263;49.418;11.064;2022-08-11T13:38:41;27.30;64.40
14359;DHT22;7263;49.418;11.064;2022-08-11T13:41:09;27.30;64.70
14359;DHT22;7263;49.418;11.064;2022-08-11T13:43:50;27.30;63.00
14359;DHT22;7263;49.418;11.064;2022-08-11T13:46:19;27.30;63.10
14359;DHT22;7263;49.418;11.064;2022-08-11T13:48:49;27.30;62.70
14359;DHT22;7263;49.418;11.064;2022-08-11T13:51:17;27.30;62.30
14359;DHT22;7263;49.418;11.064;2022-08-11T13:53:57;27.30;63.40
14359;DHT22;7263;49.418;11.064;2022-08-11T13:56:25;27.30;64.10
14359;DHT22;7263;49.418;11.064;2022-08-11T13:58:53;27.30;65.50
14359;DHT22;7263;49.418;11.064;2022-08-11T14:01:20;27.30;66.30
14359;DHT22;7263;49.418;11.064;2022-08-11T14:03:50;27.40;65.90
14359;DHT22;7263;49.418;11.064;2022-08-11T14:06:18;27.30;65.20
14359;DHT22;7263;49.418;11.064;2022-08-11T14:08:46;27.40;64.90
14359;DHT22;7263;49.418;11.064;2022-08-11T14:11:15;27.50;64.70
14359;DHT22;7263;49.418;11.064;2022-08-11T14:14:10;27.60;63.90
14359;DHT22;7263;49.418;11.064;2022-08-11T14:16:41;27.50;64.50
14359;DHT22;7263;49.418;11.064;2022-08-11T14:19:12;27.60;65.00
14359;DHT22;7263;49.418;11.064;2022-08-11T14:21:41;27.50;65.60
14359;DHT22;7263;49.418;11.064;2022-08-11T14:24:43;27.50;65.60
14359;DHT22;7263;49.418;11.064;2022-08-11T14:27:15;27.60;64.40
14359;DHT22;7263;49.418;11.064;2022-08-11T14:29:43;27.70;62.60
14359;DHT22;7263;49.418;11.064;2022-08-11T14:32:12;27.70;62.10
14359;DHT22;7263;49.418;11.064;2022-08-11T14:34:42;27.70;62.20
14359;DHT22;7263;49.418;11.064;2022-08-11T14:37:12;27.80;62.10
14359;DHT22;7263;49.418;11.064;2022-08-11T14:39:43;27.90;62.50
14359;DHT22;7263;49.418;11.064;2022-08-11T14:42:12;28.00;61.40
14359;DHT22;7263;49.418;11.064;2022-08-11T14:45:00;28.00;63.10
14359;DHT22;7263;49.418;11.064;2022-08-11T14:47:43;28.10;63.70
14359;DHT22;7263;49.418;11.064;2022-08-11T14:50:14;28.10;64.30
14359;DHT22;7263;49.418;11.064;2022-08-11T14:52:47;28.00;64.70
14359;DHT22;7263;49.418;11.064;2022-08-11T14:55:15;28.10;64.70
14359;DHT22;7263;49.418;11.064;2022-08-11T14:58:00;28.00;63.10
14359;DHT22;7263;49.418;11.064;2022-08-11T15:00:28;28.00;63.90
14359;DHT22;7263;49.418;11.064;2022-08-11T15:02:55;27.90;63.60
14359;DHT22;7263;49.418;11.064;2022-08-11T15:05:50;27.80;63.50
14359;DHT22;7263;49.418;11.064;2022-08-11T15:08:19;27.60;63.00
14359;DHT22;7263;49.418;11.064;2022-08-11T15:11:06;27.60;63.60
14359;DHT22;7263;49.418;11.064;2022-08-11T15:13:55;27.70;62.80
14359;DHT22;7263;49.418;11.064;2022-08-11T15:16:23;27.70;62.20
14359;DHT22;7263;49.418;11.064;2022-08-11T15:19:08;27.70;62.10
14359;DHT22;7263;49.418;11.064;2022-08-11T15:21:38;27.70;62.50
14359;DHT22;7263;49.418;11.064;2022-08-11T15:24:22;27.70;62.90
14359;DHT22;7263;49.418;11.064;2022-08-11T15:26:49;27.70;63.70
14359;DHT22;7263;49.418;11.064;2022-08-11T15:29:36;27.60;64.70
14359;DHT22;7263;49.418;11.064;2022-08-11T15:32:22;27.60;65.30
14359;DHT22;7263;49.418;11.064;2022-08-11T15:35:08;27.60;64.00
14359;DHT22;7263;49.418;11.064;2022-08-11T15:38:05;27.60;64.60
14359;DHT22;7263;49.418;11.064;2022-08-11T15:40:38;27.50;64.20
14359;DHT22;7263;49.418;11.064;2022-08-11T15:43:27;27.40;63.90
14359;DHT22;7263;49.418;11.064;2022-08-11T15:46:29;27.40;64.40
14359;DHT22;7263;49.418;11.064;2022-08-11T15:48:58;27.40;64.20
14359;DHT22;7263;49.418;11.064;2022-08-11T15:51:32;27.40;64.60
14359;DHT22;7263;49.418;11.064;2022-08-11T15:54:04;27.30;64.70
14359;DHT22;7263;49.418;11.064;2022-08-11T15:56:35;27.30;63.90
14359;DHT22;7263;49.418;11.064;2022-08-11T15:59:05;27.30;63.60
14359;DHT22;7263;49.418;11.064;2022-08-11T16:01:52;27.20;64.50
14359;DHT22;7263;49.418;11.064;2022-08-11T16:04:46;27.20;64.50
14359;DHT22;7263;49.418;11.064;2022-08-11T16:07:15;27.10;64.40
14359;DHT22;7263;49.418;11.064;2022-08-11T16:09:46;27.10;65.30
14359;DHT22;7263;49.418;11.064;2022-08-11T16:12:16;27.00;65.40
14359;DHT22;7263;49.418;11.064;2022-08-11T16:14:47;27.00;65.50
14359;DHT22;7263;49.418;11.064;2022-08-11T16:17:41;27.00;66.10
14359;DHT22;7263;49.418;11.064;2022-08-11T16:20:11;27.00;65.60
14359;DHT22;7263;49.418;11.064;2022-08-11T16:22:40;27.00;65.80
14359;DHT22;7263;49.418;11.064;2022-08-11T16:25:16;27.00;65.60
14359;DHT22;7263;49.418;11.064;2022-08-11T16:27:47;27.00;65.90
14359;DHT22;7263;49.418;11.064;2022-08-11T16:30:15;27.00;65.80
14359;DHT22;7263;49.418;11.064;2022-08-11T16:32:44;26.90;65.50
14359;DHT22;7263;49.418;11.064;2022-08-11T16:35:15;26.90;66.20
14359;DHT22;7263;49.418;11.064;2022-08-11T16:38:01;26.90;65.40
14359;DHT22;7263;49.418;11.064;2022-08-11T16:40:51;26.80;65.40
14359;DHT22;7263;49.418;11.064;2022-08-11T16:43:21;26.80;66.40
14359;DHT22;7263;49.418;11.064;2022-08-11T16:46:07;26.80;67.00
14359;DHT22;7263;49.418;11.064;2022-08-11T16:48:58;26.80;67.20
14359;DHT22;7263;49.418;11.064;2022-08-11T16:51:25;26.80;67.30
14359;DHT22;7263;49.418;11.064;2022-08-11T16:53:52;26.80;67.40
14359;DHT22;7263;49.418;11.064;2022-08-11T16:56:24;26.80;68.00
14359;DHT22;7263;49.418;11.064;2022-08-11T16:58:54;26.70;67.40
14359;DHT22;7263;49.418;11.064;2022-08-11T17:01:40;26.70;68.00
14359;DHT22;7263;49.418;11.064;2022-08-11T17:04:15;26.70;68.00
14359;DHT22;7263;49.418;11.064;2022-08-11T17:07:01;26.70;67.40
14359;DHT22;7263;49.418;11.064;2022-08-11T17:09:46;26.60;68.50
14359;DHT22;7263;49.418;11.064;2022-08-11T17:12:34;26.60;69.00
14359;DHT22;7263;49.418;11.064;2022-08-11T17:15:22;26.60;68.80
14359;DHT22;7263;49.418;11.064;2022-08-11T17:18:12;26.50;67.90